| time (UTC) | temp C | wind direction | speed KPH | gust KPH | rain 1hr cm | rain 24hr cm | rain mn cm | humidity % | barometer mb |
| 20260906065455 | 24 | 15 | 14.5 | 30.6 | 0.00 | 0.00 | 0.00 | 85 | 981.1 |
| 20260906064950 | 25 | 12 | 14.5 | 32.2 | 0.00 | 0.00 | 0.00 | 82 | 981.2 |
| 20260906064443 | 25 | 334 | 12.9 | 29.0 | 0.00 | 0.00 | 0.00 | 82 | 981.2 |
| 20260906063937 | 25 | 28 | 12.9 | 22.5 | 0.00 | 0.00 | 0.00 | 83 | 981.0 |
| 20260906063435 | 25 | 346 | 14.5 | 25.7 | 0.00 | 0.00 | 0.00 | 84 | 980.9 |
| 20260906062929 | 25 | 343 | 11.3 | 25.7 | 0.00 | 0.00 | 0.00 | 84 | 980.8 |
| 20260906062425 | 25 | 346 | 6.4 | 19.3 | 0.00 | 0.00 | 0.00 | 84 | 980.5 |
| 20260906061919 | 25 | 75 | 6.4 | 16.1 | 0.00 | 0.00 | 0.00 | 85 | 979.8 |
| 20260906061412 | 25 | 106 | 8.0 | 19.3 | 0.00 | 0.00 | 0.00 | 85 | 979.6 |
| 20260906060906 | 25 | 73 | 8.0 | 19.3 | 0.00 | 0.00 | 0.00 | 85 | 979.8 |
| 20260906060400 | 25 | 67 | 6.4 | 19.3 | 0.00 | 0.00 | 0.00 | 86 | 979.7 |
| 20260906060336 | 25 | 90 | 4.8 | 12.9 | 0.00 | 0.00 | 0.00 | 86 | 979.6 |
| 20260906055347 | 25 | 92 | 4.8 | 12.9 | 0.00 | 0.00 | 0.00 | 86 | 979.8 |
| 20260906054841 | 25 | 100 | 4.8 | 14.5 | 0.00 | 0.00 | 0.00 | 86 | 979.9 |
| 20260906054336 | 25 | 76 | 4.8 | 14.5 | 0.00 | 0.00 | 0.00 | 86 | 979.7 |
| 20260906053830 | 25 | 91 | 4.8 | 12.9 | 0.00 | 0.00 | 0.00 | 87 | 979.8 |
| 20260906053323 | 24 | 92 | 8.0 | 16.1 | 0.00 | 0.00 | 0.00 | 87 | 979.8 |
| 20260906052815 | 24 | 106 | 9.7 | 17.7 | 0.00 | 0.00 | 0.00 | 87 | 979.8 |
| 20260906052308 | 23 | 35 | 6.4 | 19.3 | 0.00 | 0.00 | 0.00 | 89 | 979.7 |
| 20260906051802 | 23 | 91 | 1.6 | 19.3 | 0.00 | 0.00 | 0.00 | 91 | 979.7 |
| 20260906051257 | 23 | 57 | 0.0 | 0.0 | 0.00 | 0.00 | 0.00 | 91 | 978.9 |
| 20260906050751 | 23 | 57 | 0.0 | 0.0 | 0.00 | 0.00 | 0.00 | 91 | 978.8 |
| 20260906050246 | 23 | 57 | 0.0 | 0.0 | 0.00 | 0.00 | 0.00 | 90 | 978.7 |
| 20260906045741 | 23 | 57 | 0.0 | 0.0 | 0.00 | 0.00 | 0.00 | 90 | 978.8 |
| 20260906045232 | 23 | 57 | 0.0 | 0.0 | 0.00 | 0.00 | 0.00 | 90 | 978.9 |
| 20260906044727 | 23 | 57 | 0.0 | 0.0 | 0.00 | 0.00 | 0.00 | 90 | 978.9 |
| 20260906044606 | 23 | 57 | 0.0 | 0.0 | 0.00 | 0.00 | 0.00 | 90 | 979.3 |
| 20260906044555 | 23 | 57 | 0.0 | 0.0 | 0.00 | 0.00 | 0.00 | 90 | 979.1 |
| 20260906044401 | 23 | 57 | 0.0 | 0.0 | 0.00 | 0.00 | 0.00 | 90 | 978.9 |
| 20260906043410 | 23 | 57 | 0.0 | 0.0 | 0.00 | 0.00 | 0.00 | 90 | 979.2 |
| 20260906042158 | 23 | 57 | 0.0 | 0.0 | 0.00 | 0.00 | 0.00 | 89 | 979.2 |
| 20260906041653 | 23 | 57 | 0.0 | 0.0 | 0.00 | 0.00 | 0.00 | 89 | 979.3 |
| 20260906041144 | 23 | 57 | 0.0 | 0.0 | 0.00 | 0.00 | 0.00 | 89 | 979.3 |
| 20260906040639 | 23 | 57 | 0.0 | 0.0 | 0.00 | 0.00 | 0.00 | 89 | 979.4 |
| 20260906040133 | 23 | 57 | 0.0 | 0.0 | 0.00 | 0.00 | 0.00 | 89 | 979.5 |
| 20260906035627 | 23 | 57 | 0.0 | 0.0 | 0.00 | 0.00 | 0.00 | 88 | 979.5 |
| 20260906035121 | 23 | 57 | 0.0 | 0.0 | 0.00 | 0.00 | 0.00 | 88 | 979.5 |
| 20260906034615 | 23 | 57 | 0.0 | 0.0 | 0.00 | 0.00 | 0.00 | 88 | 979.5 |
| 20260906034109 | 23 | 57 | 0.0 | 0.0 | 0.00 | 0.00 | 0.00 | 88 | 979.6 |
| 20260906033603 | 24 | 57 | 0.0 | 0.0 | 0.00 | 0.00 | 0.00 | 88 | 979.5 |
| 20260906033506 | 24 | 57 | 0.0 | 0.0 | 0.00 | 0.00 | 0.00 | 87 | 979.4 |
| 20260906033254 | 24 | 57 | 0.0 | 0.0 | 0.00 | 0.00 | 0.00 | 87 | 979.4 |
| 20260906032517 | 24 | 57 | 0.0 | 0.0 | 0.00 | 0.00 | 0.00 | 87 | 979.2 |
| 20260906031538 | 24 | 57 | 0.0 | 0.0 | 0.00 | 0.00 | 0.00 | 87 | 979.2 |
| 20260906031033 | 24 | 57 | 0.0 | 0.0 | 0.00 | 0.00 | 0.00 | 87 | 979.3 |
| 20260906030527 | 24 | 57 | 0.0 | 0.0 | 0.00 | 0.00 | 0.00 | 87 | 979.2 |
| 20260906030021 | 24 | 57 | 0.0 | 0.0 | 0.00 | 0.00 | 0.00 | 86 | 979.2 |
| 20260906025514 | 24 | 57 | 0.0 | 0.0 | 0.00 | 0.00 | 0.00 | 86 | 979.1 |
| 20260906025009 | 24 | 57 | 0.0 | 0.0 | 0.00 | 0.00 | 0.00 | 86 | 979.1 |
| 20260906024508 | 24 | 57 | 0.0 | 0.0 | 0.00 | 0.00 | 0.00 | 86 | 979.1 |
| 20260906024006 | 25 | 57 | 0.0 | 0.0 | 0.00 | 0.00 | 0.00 | 86 | 979.0 |
| 20260906023508 | 25 | 57 | 0.0 | 0.0 | 0.00 | 0.00 | 0.00 | 85 | 978.9 |
| 20260906023009 | 25 | 57 | 0.0 | 0.0 | 0.00 | 0.00 | 0.00 | 85 | 978.8 |
| 20260906022933 | 25 | 57 | 0.0 | 0.0 | 0.00 | 0.00 | 0.00 | 85 | 978.9 |
| 20260906022436 | 24 | 57 | 0.0 | 0.0 | 0.00 | 0.00 | 0.00 | 85 | 978.7 |
| 20260906021508 | 24 | 57 | 0.0 | 0.0 | 0.00 | 0.00 | 0.00 | 85 | 978.7 |
| 20260906021008 | 25 | 57 | 0.0 | 0.0 | 0.00 | 0.00 | 0.00 | 85 | 978.7 |
| 20260906020508 | 25 | 57 | 0.0 | 0.0 | 0.00 | 0.00 | 0.00 | 85 | 978.6 |
| 20260906020008 | 24 | 57 | 0.0 | 0.0 | 0.00 | 0.00 | 0.00 | 85 | 978.5 |
| 20260906015500 | 24 | 57 | 0.0 | 0.0 | 0.00 | 0.00 | 0.00 | 85 | 978.4 |
| 20260906014959 | 25 | 57 | 0.0 | 0.0 | 0.00 | 0.00 | 0.00 | 85 | 978.4 |
| 20260906014501 | 25 | 57 | 0.0 | 0.0 | 0.00 | 0.00 | 0.00 | 84 | 978.3 |
| 20260906014000 | 25 | 57 | 0.0 | 0.0 | 0.00 | 0.00 | 0.00 | 84 | 978.3 |
| 20260906013909 | 25 | 57 | 0.0 | 0.0 | 0.00 | 0.00 | 0.00 | 84 | 978.5 |
| 20260906013657 | 25 | 57 | 0.0 | 0.0 | 0.00 | 0.00 | 0.00 | 84 | 978.4 |
| 20260906012500 | 25 | 57 | 0.0 | 0.0 | 0.00 | 0.00 | 0.00 | 84 | 978.5 |
| 20260906012001 | 25 | 48 | 0.0 | 0.0 | 0.00 | 0.00 | 0.00 | 83 | 978.5 |
| 20260906011500 | 25 | 69 | 0.0 | 0.0 | 0.00 | 0.00 | 0.00 | 83 | 978.4 |
| 20260906011434 | 25 | 63 | 0.0 | 0.0 | 0.00 | 0.00 | 0.00 | 82 | 978.4 |
| 20260906010901 | 25 | 76 | 0.0 | 0.0 | 0.00 | 0.00 | 0.00 | 82 | 978.2 |
| 20260906010654 | 25 | 76 | 0.0 | 0.0 | 0.00 | 0.00 | 0.00 | 82 | 978.2 |
| 20260906005458 | 26 | 345 | 0.0 | 0.0 | 0.00 | 0.00 | 0.00 | 81 | 978.1 |
| 20260906004957 | 26 | 345 | 0.0 | 0.0 | 0.00 | 0.00 | 0.00 | 80 | 978.1 |
| 20260906004457 | 26 | 345 | 0.0 | 1.6 | 0.00 | 0.00 | 0.00 | 80 | 978.1 |
| 20260906004426 | 26 | 345 | 0.0 | 1.6 | 0.00 | 0.00 | 0.00 | 80 | 978.1 |
| 20260906003456 | 26 | 36 | 0.0 | 0.0 | 0.00 | 0.00 | 0.00 | 79 | 978.1 |
| 20260906003434 | 26 | 5 | 0.0 | 0.0 | 0.00 | 0.00 | 0.00 | 79 | 978.0 |
| 20260906002457 | 26 | 147 | 0.0 | 0.0 | 0.00 | 0.00 | 0.00 | 78 | 977.9 |
| 20260906001956 | 26 | 147 | 0.0 | 0.0 | 0.00 | 0.00 | 0.00 | 78 | 978.0 |
| 20260906001454 | 27 | 147 | 0.0 | 0.0 | 0.00 | 0.00 | 0.00 | 77 | 977.9 |
| 20260906000957 | 27 | 147 | 0.0 | 0.0 | 0.00 | 0.00 | 0.00 | 76 | 978.0 |
| 20260906000455 | 27 | 148 | 0.0 | 0.0 | 0.00 | 0.00 | 0.00 | 75 | 978.0 |
| 20260905235952 | 27 | 148 | 0.0 | 0.0 | 0.00 | 0.00 | 0.00 | 75 | 977.8 |
| 20260905235451 | 27 | 148 | 0.0 | 0.0 | 0.00 | 0.00 | 0.00 | 74 | 977.9 |
| 20260905234948 | 27 | 148 | 0.0 | 0.0 | 0.00 | 0.00 | 0.00 | 74 | 978.2 |
| 20260905234713 | 27 | 148 | 0.0 | 0.0 | 0.00 | 0.00 | 0.00 | 73 | 978.2 |
| 20260905233945 | 27 | 179 | 0.0 | 1.6 | 0.00 | 0.00 | 0.00 | 72 | 978.2 |
| 20260905233450 | 27 | 180 | 0.0 | 1.6 | 0.00 | 0.00 | 0.00 | 71 | 978.4 |
| 20260905232945 | 27 | 240 | 3.2 | 24.1 | 0.00 | 0.00 | 0.00 | 71 | 978.7 |
| 20260905232442 | 28 | 128 | 6.4 | 24.1 | 0.00 | 0.00 | 0.00 | 69 | 978.7 |
| 20260905232420 | 28 | 65 | 8.0 | 32.2 | 0.00 | 0.00 | 0.00 | 65 | 978.6 |
| 20260905231912 | 29 | 59 | 0.0 | 9.7 | 0.00 | 0.00 | 0.00 | 61 | 978.0 |
| 20260905231648 | 29 | 13 | 4.8 | 32.2 | 0.00 | 0.00 | 0.00 | 59 | 978.6 |
| 20260905230926 | 29 | 84 | 1.6 | 12.9 | 0.00 | 0.00 | 0.00 | 61 | 977.9 |
| 20260905225937 | 29 | 79 | 3.2 | 16.1 | 0.00 | 0.00 | 0.00 | 61 | 977.9 |
| 20260905225428 | 29 | 80 | 6.4 | 33.8 | 0.00 | 0.00 | 0.00 | 61 | 977.9 |
| 20260905224922 | 29 | 102 | 11.3 | 33.8 | 0.00 | 0.00 | 0.00 | 62 | 978.0 |
| 20260905224415 | 30 | 65 | 12.9 | 29.0 | 0.00 | 0.00 | 0.00 | 57 | 978.0 |
| 20260905223909 | 31 | 53 | 14.5 | 29.0 | 0.00 | 0.00 | 0.00 | 55 | 977.9 |
| 20260905223404 | 32 | 5 | 8.0 | 33.8 | 0.00 | 0.00 | 0.00 | 54 | 977.9 |
| 20260905222857 | 34 | 5 | 1.6 | 33.8 | 0.00 | 0.00 | 0.00 | 49 | 977.9 |
| 20260905222351 | 35 | 22 | 0.0 | 0.0 | 0.00 | 0.00 | 0.00 | 51 | 977.6 |
| 20260905222324 | 35 | 22 | 0.0 | 0.0 | 0.00 | 0.00 | 0.00 | 51 | 977.6 |
| 20260905221810 | 35 | 22 | 0.0 | 0.0 | 0.00 | 0.00 | 0.00 | 50 | 977.6 |
| 20260905220833 | 35 | 22 | 0.0 | 0.0 | 0.00 | 0.00 | 0.00 | 51 | 977.5 |
| 20260905220809 | 34 | 22 | 0.0 | 0.0 | 0.00 | 0.00 | 0.00 | 52 | 977.5 |
| 20260905215821 | 34 | 22 | 0.0 | 0.0 | 0.00 | 0.00 | 0.00 | 51 | 977.4 |
| 20260905215315 | 34 | 22 | 0.0 | 0.0 | 0.00 | 0.00 | 0.00 | 54 | 977.5 |
| 20260905215251 | 34 | 22 | 0.0 | 0.0 | 0.00 | 0.00 | 0.00 | 53 | 977.6 |
| 20260905214305 | 34 | 22 | 0.0 | 0.0 | 0.00 | 0.00 | 0.00 | 54 | 977.6 |
| 20260905213756 | 34 | 22 | 0.0 | 0.0 | 0.00 | 0.00 | 0.00 | 53 | 977.7 |
| 20260905213251 | 35 | 22 | 0.0 | 0.0 | 0.00 | 0.00 | 0.00 | 52 | 977.7 |
| 20260905212746 | 35 | 30 | 0.0 | 0.0 | 0.00 | 0.00 | 0.00 | 49 | 977.7 |
| 20260905212239 | 35 | 51 | 0.0 | 0.0 | 0.00 | 0.00 | 0.00 | 50 | 977.7 |
| 20260905211737 | 35 | 24 | 0.0 | 0.0 | 0.00 | 0.00 | 0.00 | 50 | 977.7 |
| 20260905211705 | 35 | 52 | 0.0 | 0.0 | 0.00 | 0.00 | 0.00 | 49 | 977.8 |
| 20260905210725 | 35 | 0 | 0.0 | 0.0 | 0.00 | 0.00 | 0.00 | 48 | 977.7 |
| 20260905210219 | 35 | 68 | 0.0 | 0.0 | 0.00 | 0.00 | 0.00 | 45 | 977.6 |
| 20260905205713 | 35 | 79 | 0.0 | 0.0 | 0.00 | 0.00 | 0.00 | 45 | 977.7 |
| 20260905205207 | 35 | 90 | 0.0 | 0.0 | 0.00 | 0.00 | 0.00 | 46 | 977.7 |
| 20260905204703 | 35 | 96 | 0.0 | 0.0 | 0.00 | 0.00 | 0.00 | 46 | 977.7 |
| 20260905204154 | 35 | 125 | 0.0 | 0.0 | 0.00 | 0.00 | 0.00 | 48 | 977.7 |
| 20260905203649 | 35 | 48 | 0.0 | 0.0 | 0.00 | 0.00 | 0.00 | 47 | 977.8 |
| 20260905203618 | 35 | 51 | 0.0 | 0.0 | 0.00 | 0.00 | 0.00 | 46 | 978.0 |
| 20260905202639 | 35 | 333 | 0.0 | 0.0 | 0.00 | 0.00 | 0.00 | 50 | 978.0 |
| 20260905202132 | 35 | 64 | 0.0 | 0.0 | 0.00 | 0.00 | 0.00 | 47 | 978.1 |
| 20260905202056 | 35 | 57 | 0.0 | 0.0 | 0.00 | 0.00 | 0.00 | 48 | 978.2 |
| 20260905201119 | 35 | 94 | 0.0 | 0.0 | 0.00 | 0.00 | 0.00 | 49 | 978.3 |
| 20260905200614 | 35 | 321 | 0.0 | 0.0 | 0.00 | 0.00 | 0.00 | 49 | 978.3 |
| 20260905200107 | 35 | 344 | 0.0 | 0.0 | 0.00 | 0.00 | 0.00 | 51 | 978.4 |
| 20260905195600 | 35 | 19 | 0.0 | 0.0 | 0.00 | 0.00 | 0.00 | 51 | 978.6 |
| 20260905195055 | 35 | 65 | 0.0 | 0.0 | 0.00 | 0.00 | 0.00 | 50 | 978.6 |
| 20260905194550 | 35 | 42 | 0.0 | 0.0 | 0.00 | 0.00 | 0.00 | 53 | 978.8 |
| 20260905194516 | 35 | 315 | 0.0 | 0.0 | 0.00 | 0.00 | 0.00 | 53 | 978.8 |
| 20260905193537 | 35 | 349 | 0.0 | 0.0 | 0.00 | 0.00 | 0.00 | 52 | 978.8 |
| 20260905193031 | 35 | 0 | 0.0 | 0.0 | 0.00 | 0.00 | 0.00 | 49 | 978.9 |
| 20260905192526 | 35 | 93 | 0.0 | 0.0 | 0.00 | 0.00 | 0.00 | 49 | 978.8 |
| 20260905192021 | 35 | 26 | 0.0 | 0.0 | 0.00 | 0.00 | 0.00 | 50 | 978.8 |
| 20260905191946 | 35 | 313 | 0.0 | 0.0 | 0.00 | 0.00 | 0.00 | 49 | 978.8 |
| 20260905191438 | 35 | 355 | 0.0 | 0.0 | 0.00 | 0.00 | 0.00 | 49 | 979.0 |
| 20260905190501 | 35 | 355 | 0.0 | 0.0 | 0.00 | 0.00 | 0.00 | 47 | 979.2 |
| 20260905190428 | 36 | 18 | 0.0 | 0.0 | 0.00 | 0.00 | 0.00 | 50 | 979.3 |
| 20260905185451 | 35 | 182 | 0.0 | 0.0 | 0.00 | 0.00 | 0.00 | 49 | 979.3 |
| 20260905184954 | 35 | 171 | 0.0 | 0.0 | 0.00 | 0.00 | 0.00 | 49 | 979.5 |
| 20260905184448 | 35 | 117 | 0.0 | 0.0 | 0.00 | 0.00 | 0.00 | 51 | 979.5 |
| 20260905183946 | 35 | 111 | 0.0 | 0.0 | 0.00 | 0.00 | 0.00 | 50 | 979.6 |
| 20260905183448 | 35 | 92 | 0.0 | 0.0 | 0.00 | 0.00 | 0.00 | 51 | 979.7 |
| 20260905182943 | 35 | 26 | 0.0 | 0.0 | 0.00 | 0.00 | 0.00 | 54 | 979.7 |
| 20260905182443 | 35 | 32 | 0.0 | 0.0 | 0.00 | 0.00 | 0.00 | 52 | 979.7 |
| 20260905181941 | 35 | 90 | 0.0 | 0.0 | 0.00 | 0.00 | 0.00 | 52 | 979.9 |
| 20260905181445 | 34 | 323 | 0.0 | 0.0 | 0.00 | 0.00 | 0.00 | 53 | 979.9 |
| 20260905180941 | 34 | 340 | 0.0 | 0.0 | 0.00 | 0.00 | 0.00 | 52 | 980.0 |
| 20260905180444 | 34 | 18 | 0.0 | 0.0 | 0.00 | 0.00 | 0.00 | 56 | 980.1 |
| 20260905175938 | 34 | 32 | 0.0 | 0.0 | 0.00 | 0.00 | 0.00 | 53 | 980.1 |
| 20260905175437 | 34 | 0 | 0.0 | 0.0 | 0.00 | 0.00 | 0.00 | 52 | 980.1 |
| 20260905174937 | 34 | 57 | 0.0 | 0.0 | 0.00 | 0.00 | 0.00 | 54 | 980.1 |
| 20260905174436 | 34 | 29 | 0.0 | 0.0 | 0.00 | 0.00 | 0.00 | 54 | 980.1 |
| 20260905173938 | 34 | 123 | 0.0 | 0.0 | 0.00 | 0.00 | 0.00 | 55 | 980.1 |
| 20260905173435 | 34 | 59 | 0.0 | 0.0 | 0.00 | 0.00 | 0.00 | 55 | 980.1 |
| 20260905173411 | 34 | 74 | 0.0 | 0.0 | 0.00 | 0.00 | 0.00 | 55 | 980.1 |
| 20260905172904 | 34 | 59 | 0.0 | 0.0 | 0.00 | 0.00 | 0.00 | 53 | 980.2 |
| 20260905172407 | 34 | 24 | 0.0 | 0.0 | 0.00 | 0.00 | 0.00 | 54 | 980.3 |
| 20260905171429 | 34 | 71 | 0.0 | 0.0 | 0.00 | 0.00 | 0.00 | 56 | 980.3 |
| 20260905170929 | 34 | 339 | 0.0 | 0.0 | 0.00 | 0.00 | 0.00 | 57 | 980.4 |
| 20260905170430 | 34 | 317 | 0.0 | 0.0 | 0.00 | 0.00 | 0.00 | 55 | 980.3 |
| 20260905165930 | 35 | 5 | 0.0 | 0.0 | 0.00 | 0.00 | 0.00 | 53 | 980.5 |
| 20260905165902 | 35 | 267 | 0.0 | 0.0 | 0.00 | 0.00 | 0.00 | 58 | 980.5 |
| 20260905164928 | 34 | 286 | 0.0 | 0.0 | 0.00 | 0.00 | 0.00 | 55 | 980.6 |
| 20260905164429 | 34 | 255 | 0.0 | 0.0 | 0.00 | 0.00 | 0.00 | 59 | 980.6 |
| 20260905163929 | 34 | 254 | 0.0 | 0.0 | 0.00 | 0.00 | 0.00 | 60 | 980.8 |
| 20260905163904 | 33 | 266 | 0.0 | 0.0 | 0.00 | 0.00 | 0.00 | 60 | 980.9 |
| 20260905162925 | 33 | 35 | 0.0 | 0.0 | 0.00 | 0.00 | 0.00 | 62 | 980.9 |
| 20260905162427 | 33 | 332 | 0.0 | 0.0 | 0.00 | 0.00 | 0.00 | 63 | 981.0 |
| 20260905162337 | 33 | 5 | 0.0 | 0.0 | 0.00 | 0.00 | 0.00 | 65 | 981.2 |
| 20260905162125 | 33 | 5 | 0.0 | 0.0 | 0.00 | 0.00 | 0.00 | 64 | 981.1 |
| 20260905160925 | 32 | 5 | 0.0 | 0.0 | 0.00 | 0.00 | 0.00 | 62 | 981.3 |
| 20260905160425 | 32 | 335 | 0.0 | 0.0 | 0.00 | 0.00 | 0.00 | 64 | 981.3 |
| 20260905160353 | 32 | 17 | 0.0 | 0.0 | 0.00 | 0.00 | 0.00 | 64 | 981.3 |
| 20260905155426 | 32 | 18 | 0.0 | 0.0 | 0.00 | 0.00 | 0.00 | 65 | 981.3 |
| 20260905154926 | 32 | 18 | 0.0 | 0.0 | 0.00 | 0.00 | 0.00 | 66 | 981.3 |
| 20260905154425 | 32 | 0 | 0.0 | 0.0 | 0.00 | 0.00 | 0.00 | 65 | 981.2 |
| 20260905153925 | 32 | 9 | 0.0 | 0.0 | 0.00 | 0.00 | 0.00 | 65 | 981.3 |
| 20260905153426 | 31 | 347 | 0.0 | 0.0 | 0.00 | 0.00 | 0.00 | 65 | 981.3 |
| 20260905153331 | 32 | 327 | 0.0 | 0.0 | 0.00 | 0.00 | 0.00 | 69 | 981.2 |
| 20260905153125 | 31 | 350 | 0.0 | 0.0 | 0.00 | 0.00 | 0.00 | 66 | 981.3 |
| 20260905151926 | 31 | 11 | 0.0 | 0.0 | 0.00 | 0.00 | 0.00 | 68 | 981.4 |
| 20260905151426 | 31 | 11 | 0.0 | 0.0 | 0.00 | 0.00 | 0.00 | 71 | 981.3 |
| 20260905150925 | 31 | 11 | 0.0 | 0.0 | 0.00 | 0.00 | 0.00 | 71 | 981.3 |
| 20260905150902 | 31 | 11 | 0.0 | 0.0 | 0.00 | 0.00 | 0.00 | 69 | 981.3 |
| 20260905145920 | 31 | 11 | 0.0 | 0.0 | 0.00 | 0.00 | 0.00 | 67 | 981.3 |
| 20260905145414 | 31 | 11 | 0.0 | 0.0 | 0.00 | 0.00 | 0.00 | 70 | 981.3 |
| 20260905144908 | 30 | 9 | 0.0 | 0.0 | 0.00 | 0.00 | 0.00 | 73 | 981.4 |
| 20260905144358 | 30 | 9 | 0.0 | 0.0 | 0.00 | 0.00 | 0.00 | 71 | 981.5 |
| 20260905144332 | 30 | 10 | 0.0 | 0.0 | 0.00 | 0.00 | 0.00 | 76 | 981.5 |
| 20260905143347 | 30 | 355 | 0.0 | 0.0 | 0.00 | 0.00 | 0.00 | 75 | 981.5 |
| 20260905142843 | 30 | 355 | 0.0 | 0.0 | 0.00 | 0.00 | 0.00 | 75 | 981.5 |
| 20260905142334 | 31 | 84 | 0.0 | 0.0 | 0.00 | 0.00 | 0.00 | 73 | 981.6 |
| 20260905141827 | 30 | 84 | 0.0 | 0.0 | 0.00 | 0.00 | 0.00 | 72 | 981.7 |
| 20260905141323 | 31 | 84 | 0.0 | 0.0 | 0.00 | 0.00 | 0.00 | 71 | 981.7 |
| 20260905140817 | 31 | 84 | 0.0 | 0.0 | 0.00 | 0.00 | 0.00 | 73 | 981.8 |
| 20260905140310 | 30 | 84 | 0.0 | 0.0 | 0.00 | 0.00 | 0.00 | 75 | 981.9 |
| 20260905135803 | 30 | 84 | 0.0 | 0.0 | 0.00 | 0.00 | 0.00 | 76 | 981.8 |
| 20260905135258 | 30 | 84 | 0.0 | 0.0 | 0.00 | 0.00 | 0.00 | 76 | 981.7 |
| 20260905134752 | 30 | 79 | 0.0 | 0.0 | 0.00 | 0.00 | 0.00 | 75 | 981.7 |
| 20260905134246 | 29 | 79 | 0.0 | 0.0 | 0.00 | 0.00 | 0.00 | 77 | 981.7 |
| 20260905134221 | 29 | 78 | 0.0 | 0.0 | 0.00 | 0.00 | 0.00 | 77 | 981.7 |
| 20260905133612 | 27 | 62 | 0.0 | 0.0 | 0.00 | 0.00 | 0.00 | 83 | 981.9 |
| 20260905133602 | 28 | 78 | 0.0 | 0.0 | 0.00 | 0.00 | 0.00 | 78 | 981.8 |
| 20260905133407 | 29 | 78 | 0.0 | 0.0 | 0.00 | 0.00 | 0.00 | 78 | 981.8 |
| 20260905132416 | 28 | 67 | 0.0 | 0.0 | 0.00 | 0.00 | 0.00 | 81 | 981.8 |
| 20260905131919 | 28 | 65 | 0.0 | 0.0 | 0.00 | 0.00 | 0.00 | 82 | 981.9 |
| 20260905130704 | 27 | 62 | 0.0 | 0.0 | 0.00 | 0.00 | 0.00 | 84 | 981.9 |
| 20260905130158 | 26 | 62 | 0.0 | 0.0 | 0.00 | 0.00 | 0.00 | 86 | 981.9 |
| 20260905125652 | 26 | 62 | 0.0 | 0.0 | 0.00 | 0.00 | 0.00 | 88 | 981.8 |
| 20260905125627 | 25 | 62 | 0.0 | 0.0 | 0.00 | 0.00 | 0.00 | 90 | 981.7 |
| 20260905124639 | 25 | 62 | 0.0 | 0.0 | 0.00 | 0.00 | 0.00 | 92 | 981.6 |
| 20260905124552 | 24 | 62 | 0.0 | 0.0 | 0.00 | 0.00 | 0.00 | 95 | 981.7 |
| 20260905124333 | 25 | 62 | 0.0 | 0.0 | 0.00 | 0.00 | 0.00 | 93 | 981.7 |
| 20260905123351 | 23 | 62 | 0.0 | 0.0 | 0.00 | 0.00 | 0.00 | 96 | 981.7 |
| 20260905122616 | 23 | 62 | 0.0 | 0.0 | 0.00 | 0.00 | 0.00 | 96 | 981.6 |
| 20260905122110 | 23 | 62 | 0.0 | 0.0 | 0.00 | 0.00 | 0.00 | 96 | 981.5 |
| 20260905122035 | 22 | 62 | 0.0 | 0.0 | 0.00 | 0.00 | 0.00 | 96 | 981.5 |
| 20260905121057 | 22 | 62 | 0.0 | 0.0 | 0.00 | 0.00 | 0.00 | 95 | 981.5 |
| 20260905120554 | 22 | 62 | 0.0 | 0.0 | 0.00 | 0.00 | 0.00 | 95 | 981.4 |
| 20260905120501 | 22 | 62 | 0.0 | 0.0 | 0.00 | 0.00 | 0.00 | 96 | 981.4 |
| 20260905120242 | 22 | 62 | 0.0 | 0.0 | 0.00 | 0.00 | 0.00 | 96 | 981.4 |
| 20260905115033 | 22 | 62 | 0.0 | 0.0 | 0.00 | 0.00 | 0.00 | 95 | 981.4 |
| 20260905114528 | 22 | 62 | 0.0 | 0.0 | 0.00 | 0.00 | 0.00 | 95 | 981.3 |
| 20260905114503 | 22 | 62 | 0.0 | 0.0 | 0.00 | 0.00 | 0.00 | 95 | 981.3 |
| 20260905113516 | 22 | 62 | 0.0 | 0.0 | 0.00 | 0.00 | 0.00 | 95 | 981.2 |
| 20260905113009 | 22 | 62 | 0.0 | 0.0 | 0.00 | 0.00 | 0.00 | 95 | 981.2 |
| 20260905112504 | 22 | 62 | 0.0 | 0.0 | 0.00 | 0.00 | 0.00 | 95 | 981.0 |
| 20260905111958 | 22 | 62 | 0.0 | 0.0 | 0.00 | 0.00 | 0.00 | 95 | 981.0 |
| 20260905111931 | 22 | 62 | 0.0 | 0.0 | 0.00 | 0.00 | 0.00 | 95 | 981.0 |
| 20260905110946 | 22 | 62 | 0.0 | 0.0 | 0.00 | 0.00 | 0.00 | 95 | 980.8 |
| 20260905110440 | 22 | 62 | 0.0 | 0.0 | 0.00 | 0.00 | 0.00 | 95 | 980.8 |
| 20260905110414 | 22 | 62 | 0.0 | 0.0 | 0.00 | 0.00 | 0.00 | 95 | 980.8 |
| 20260905105907 | 22 | 62 | 0.0 | 0.0 | 0.00 | 0.00 | 0.00 | 95 | 980.8 |
| 20260905104922 | 22 | 62 | 0.0 | 0.0 | 0.00 | 0.00 | 0.00 | 95 | 980.8 |
| 20260905104415 | 22 | 62 | 0.0 | 0.0 | 0.00 | 0.00 | 0.00 | 95 | 980.8 |
| 20260905103910 | 22 | 62 | 0.0 | 0.0 | 0.00 | 0.00 | 0.00 | 95 | 980.7 |
| 20260905103405 | 22 | 62 | 0.0 | 0.0 | 0.00 | 0.00 | 0.00 | 95 | 980.6 |
| 20260905102857 | 22 | 62 | 0.0 | 0.0 | 0.00 | 0.00 | 0.00 | 95 | 980.6 |
| 20260905102352 | 22 | 62 | 0.0 | 0.0 | 0.00 | 0.00 | 0.00 | 95 | 980.6 |
| 20260905101847 | 22 | 62 | 0.0 | 0.0 | 0.00 | 0.00 | 0.00 | 95 | 980.5 |
| 20260905101744 | 22 | 62 | 0.0 | 0.0 | 0.00 | 0.00 | 0.00 | 95 | 980.5 |
| 20260905101733 | 22 | 62 | 0.0 | 0.0 | 0.00 | 0.00 | 0.00 | 95 | 980.4 |
| 20260905101527 | 22 | 62 | 0.0 | 0.0 | 0.00 | 0.00 | 0.00 | 95 | 980.4 |
| 20260905095822 | 22 | 62 | 0.0 | 0.0 | 0.00 | 0.00 | 0.00 | 95 | 980.5 |
| 20260905095317 | 22 | 62 | 0.0 | 0.0 | 0.00 | 0.00 | 0.00 | 95 | 980.6 |
| 20260905094812 | 22 | 62 | 0.0 | 0.0 | 0.00 | 0.00 | 0.00 | 95 | 980.6 |
| 20260905094304 | 22 | 62 | 0.0 | 0.0 | 0.00 | 0.00 | 0.00 | 95 | 980.5 |
| 20260905094239 | 22 | 62 | 0.0 | 0.0 | 0.00 | 0.00 | 0.00 | 94 | 980.4 |
| 20260905093252 | 22 | 62 | 0.0 | 0.0 | 0.00 | 0.00 | 0.00 | 94 | 980.3 |
| 20260905092746 | 22 | 62 | 0.0 | 0.0 | 0.00 | 0.00 | 0.00 | 95 | 980.3 |
| 20260905092712 | 22 | 62 | 0.0 | 0.0 | 0.00 | 0.00 | 0.00 | 95 | 980.2 |
| 20260905091734 | 22 | 62 | 0.0 | 0.0 | 0.00 | 0.00 | 0.00 | 94 | 980.3 |
| 20260905091710 | 22 | 62 | 0.0 | 0.0 | 0.00 | 0.00 | 0.00 | 94 | 980.2 |
| 20260905091203 | 22 | 62 | 0.0 | 0.0 | 0.00 | 0.00 | 0.00 | 94 | 980.2 |
| 20260905090648 | 22 | 62 | 0.0 | 0.0 | 0.00 | 0.00 | 0.00 | 94 | 980.3 |
| 20260905085718 | 22 | 62 | 0.0 | 0.0 | 0.00 | 0.00 | 0.00 | 94 | 980.2 |
| 20260905085216 | 22 | 62 | 0.0 | 0.0 | 0.00 | 0.00 | 0.00 | 94 | 980.2 |
| 20260905084717 | 22 | 62 | 0.0 | 0.0 | 0.00 | 0.00 | 0.00 | 95 | 980.2 |
| 20260905084214 | 22 | 62 | 0.0 | 0.0 | 0.00 | 0.00 | 0.00 | 95 | 980.2 |
| 20260905083717 | 22 | 62 | 0.0 | 0.0 | 0.00 | 0.00 | 0.00 | 95 | 980.2 |
| 20260905083211 | 22 | 62 | 0.0 | 0.0 | 0.00 | 0.00 | 0.00 | 94 | 980.3 |
| 20260905082709 | 22 | 62 | 0.0 | 0.0 | 0.00 | 0.00 | 0.00 | 95 | 980.2 |
| 20260905082211 | 22 | 62 | 0.0 | 0.0 | 0.00 | 0.00 | 0.00 | 95 | 980.3 |
| 20260905081703 | 22 | 62 | 0.0 | 0.0 | 0.00 | 0.00 | 0.00 | 94 | 980.3 |
| 20260905081202 | 22 | 62 | 0.0 | 0.0 | 0.00 | 0.00 | 0.00 | 94 | 980.3 |
| 20260905080705 | 22 | 62 | 0.0 | 0.0 | 0.00 | 0.00 | 0.00 | 94 | 980.2 |
| 20260905080159 | 22 | 62 | 0.0 | 0.0 | 0.00 | 0.00 | 0.00 | 94 | 980.1 |
| 20260905075656 | 22 | 62 | 0.0 | 0.0 | 0.00 | 0.00 | 0.00 | 94 | 980.1 |
| 20260905075159 | 22 | 62 | 0.0 | 0.0 | 0.00 | 0.00 | 0.00 | 94 | 980.0 |
| 20260905075138 | 23 | 62 | 0.0 | 0.0 | 0.00 | 0.00 | 0.00 | 94 | 980.0 |
| 20260905074157 | 23 | 62 | 0.0 | 0.0 | 0.00 | 0.00 | 0.00 | 94 | 980.1 |
| 20260905073658 | 23 | 62 | 0.0 | 0.0 | 0.00 | 0.00 | 0.00 | 94 | 980.1 |
| 20260905073157 | 23 | 62 | 0.0 | 0.0 | 0.00 | 0.00 | 0.00 | 94 | 980.2 |
| 20260905073122 | 23 | 62 | 0.0 | 0.0 | 0.00 | 0.00 | 0.00 | 94 | 980.2 |
| 20260905072156 | 23 | 62 | 0.0 | 0.0 | 0.00 | 0.00 | 0.00 | 94 | 980.1 |
| 20260905072123 | 23 | 62 | 0.0 | 0.0 | 0.00 | 0.00 | 0.00 | 93 | 980.0 |
| 20260905071156 | 23 | 62 | 0.0 | 0.0 | 0.00 | 0.00 | 0.00 | 93 | 980.0 |
| 20260905070657 | 23 | 62 | 0.0 | 0.0 | 0.00 | 0.00 | 0.00 | 93 | 980.0 |
| 20260905070622 | 23 | 62 | 0.0 | 0.0 | 0.00 | 0.00 | 0.00 | 93 | 980.0 |